Volgo-don 5038 — UBAG5 — position and weather

sailwx.info

Track history (hours):
 
Tides and Currents Weather Stations Pressure Air Temp Water Temp Dewpoint Dewpoint Depression Visibility Wind Speed Wind Dir Waves Ship Positions

Volgo-don 5038

Last reported at 2018-Jul-12 16:51 UTC. Time now 2018-Jul-15 20:45 UTC.
Position N 45°26' E 036°42'.

Length 139 m; draft 3.9 m.

Type: Cargo ship. MMSI: 273338930.

Date/timePositionNaut miles runAvg speedWind from/ knotsBaromVisibWave heightAir tempDewpointWater temp
2018-Jul-12 16:51N 45°26' E 036°42'2 5.7
2018-Jul-12 16:26N 45°24' E 036°41'1 1.7
2018-Jul-12 15:48N 45°23' E 036°42'0 0.0
2018-Jul-12 14:37N 45°23' E 036°42'0 0.0
2018-Jul-12 14:28N 45°23' E 036°42'0 0.0
2018-Jul-12 13:55N 45°23' E 036°42'0 0.0
2018-Jul-12 13:14N 45°23' E 036°42'0 0.1
2018-Jul-12 12:59N 45°23' E 036°42'0 0.0
2018-Jul-12 07:21N 45°23' E 036°42'0 0.0
2018-Jul-12 06:51N 45°23' E 036°42'0 0.0
2018-Jul-12 06:15N 45°23' E 036°42'0 0.0
2018-Jul-12 05:58N 45°23' E 036°42'0 0.0
2018-Jul-12 05:28N 45°23' E 036°42'0 0.1
2018-Jul-12 04:58N 45°23' E 036°42'0 0.0
2018-Jul-12 04:23N 45°23' E 036°42'0 0.0
2018-Jul-12 03:59N 45°23' E 036°42'0 0.0
2018-Jul-12 03:14N 45°23' E 036°42'0 0.0
2018-Jul-12 02:57N 45°23' E 036°42'0 0.0
2018-Jul-12 02:24N 45°23' E 036°42'0 0.0
2018-Jul-12 01:57N 45°23' E 036°42'0 0.0
2018-Jul-12 01:30N 45°23' E 036°42'0 0.0
2018-Jul-12 00:55N 45°23' E 036°42'0 0.0
2018-Jul-11 23:50N 45°23' E 036°42'0 0.0
2018-Jul-11 21:36N 45°23' E 036°42'0 0.0
2018-Jul-11 21:12N 45°23' E 036°42'0 0.0
2018-Jul-11 20:57N 45°23' E 036°42'0 0.0
2018-Jul-11 19:02N 45°23' E 036°42'0 0.0
2018-Jul-11 18:17N 45°23' E 036°42'0 0.0
2018-Jul-11 17:56N 45°23' E 036°42'0 0.0
2018-Jul-11 17:15N 45°23' E 036°42'0 0.0
2018-Jul-11 06:25N 45°23' E 036°42'0 0.0
2018-Jul-11 05:55N 45°23' E 036°42'0 0.0
2018-Jul-11 04:15N 45°23' E 036°42'0 0.0
2018-Jul-10 23:42N 45°23' E 036°42'0 0.0
2018-Jul-09 10:04N 45°23' E 036°42'0 0.0
2018-Jul-09 09:52N 45°23' E 036°42'0 0.0
2018-Jul-09 08:40N 45°23' E 036°42'0 0.0
2018-Jul-09 08:26N 45°23' E 036°42'0 0.0
2018-Jul-09 07:59N 45°23' E 036°42'0 0.0
2018-Jul-09 07:20N 45°23' E 036°42'0 0.0
2018-Jul-09 06:51N 45°23' E 036°42'0 0.0
2018-Jul-09 06:30N 45°23' E 036°42'0 0.0
2018-Jul-09 06:00N 45°23' E 036°42'0 0.0
2018-Jul-09 05:28N 45°23' E 036°42'0 0.0
2018-Jul-09 04:58N 45°23' E 036°42'0 0.0
2018-Jul-08 15:31N 45°23' E 036°42'0 0.1
2018-Jul-08 15:29N 45°23' E 036°42'1 1.8
2018-Jul-08 15:01N 45°22' E 036°42'3 6.0
2018-Jul-08 14:30N 45°21' E 036°38'3 6.1
2018-Jul-08 14:00N 45°20' E 036°34'7 4.8
2018-Jul-08 12:34N 45°14' E 036°29'0 4.2
2018-Jul-08 12:30N 45°14' E 036°29'8 0.4
2018-Jul-07 16:17N 45°07' E 036°36'12 1.4
2018-Jul-07 07:34N 45°19' E 036°32'1 5.4
2018-Jul-07 07:26N 45°19' E 036°33'2 5.4
2018-Jul-07 07:00N 45°20' E 036°36'3 5.2
2018-Jul-07 06:30N 45°22' E 036°39'3 5.3
2018-Jul-07 05:59N 45°24' E 036°40'3 5.2
2018-Jul-07 05:30N 45°27' E 036°39'  
Track history (hours):
 
Tides and Currents Weather Stations Pressure Air Temp Water Temp Dewpoint Dewpoint Depression Visibility Wind Speed Wind Dir Waves Ship Positions

Volgo-don 5038

Last reported at 2018-Jul-12 16:51 UTC. Time now 2018-Jul-15 20:45 UTC.
Position N 45°26' E 036°42'.

Length 139 m; draft 3.9 m.

Type: Cargo ship. MMSI: 273338930.

Date/timePositionNaut miles runAvg speedWind from/ knotsBaromVisibWave heightAir tempDewpointWater temp
2018-Jul-12 16:51N 45°26' E 036°42'2 5.7
2018-Jul-12 16:26N 45°24' E 036°41'1 1.7
2018-Jul-12 15:48N 45°23' E 036°42'0 0.0
2018-Jul-12 14:37N 45°23' E 036°42'0 0.0
2018-Jul-12 14:28N 45°23' E 036°42'0 0.0
2018-Jul-12 13:55N 45°23' E 036°42'0 0.0
2018-Jul-12 13:14N 45°23' E 036°42'0 0.1
2018-Jul-12 12:59N 45°23' E 036°42'0 0.0
2018-Jul-12 07:21N 45°23' E 036°42'0 0.0
2018-Jul-12 06:51N 45°23' E 036°42'0 0.0
2018-Jul-12 06:15N 45°23' E 036°42'0 0.0
2018-Jul-12 05:58N 45°23' E 036°42'0 0.0
2018-Jul-12 05:28N 45°23' E 036°42'0 0.1
2018-Jul-12 04:58N 45°23' E 036°42'0 0.0
2018-Jul-12 04:23N 45°23' E 036°42'0 0.0
2018-Jul-12 03:59N 45°23' E 036°42'0 0.0
2018-Jul-12 03:14N 45°23' E 036°42'0 0.0
2018-Jul-12 02:57N 45°23' E 036°42'0 0.0
2018-Jul-12 02:24N 45°23' E 036°42'0 0.0
2018-Jul-12 01:57N 45°23' E 036°42'0 0.0
2018-Jul-12 01:30N 45°23' E 036°42'0 0.0
2018-Jul-12 00:55N 45°23' E 036°42'0 0.0
2018-Jul-11 23:50N 45°23' E 036°42'0 0.0
2018-Jul-11 21:36N 45°23' E 036°42'0 0.0
2018-Jul-11 21:12N 45°23' E 036°42'0 0.0
2018-Jul-11 20:57N 45°23' E 036°42'0 0.0
2018-Jul-11 19:02N 45°23' E 036°42'0 0.0
2018-Jul-11 18:17N 45°23' E 036°42'0 0.0
2018-Jul-11 17:56N 45°23' E 036°42'0 0.0
2018-Jul-11 17:15N 45°23' E 036°42'0 0.0
2018-Jul-11 06:25N 45°23' E 036°42'0 0.0
2018-Jul-11 05:55N 45°23' E 036°42'0 0.0
2018-Jul-11 04:15N 45°23' E 036°42'0 0.0
2018-Jul-10 23:42N 45°23' E 036°42'0 0.0
2018-Jul-09 10:04N 45°23' E 036°42'0 0.0
2018-Jul-09 09:52N 45°23' E 036°42'0 0.0
2018-Jul-09 08:40N 45°23' E 036°42'0 0.0
2018-Jul-09 08:26N 45°23' E 036°42'0 0.0
2018-Jul-09 07:59N 45°23' E 036°42'0 0.0
2018-Jul-09 07:20N 45°23' E 036°42'0 0.0
2018-Jul-09 06:51N 45°23' E 036°42'0 0.0
2018-Jul-09 06:30N 45°23' E 036°42'0 0.0
2018-Jul-09 06:00N 45°23' E 036°42'0 0.0
2018-Jul-09 05:28N 45°23' E 036°42'0 0.0
2018-Jul-09 04:58N 45°23' E 036°42'0 0.0
2018-Jul-08 15:31N 45°23' E 036°42'0 0.1
2018-Jul-08 15:29N 45°23' E 036°42'1 1.8
2018-Jul-08 15:01N 45°22' E 036°42'3 6.0
2018-Jul-08 14:30N 45°21' E 036°38'3 6.1
2018-Jul-08 14:00N 45°20' E 036°34'7 4.8
2018-Jul-08 12:34N 45°14' E 036°29'0 4.2
2018-Jul-08 12:30N 45°14' E 036°29'8 0.4
2018-Jul-07 16:17N 45°07' E 036°36'12 1.4
2018-Jul-07 07:34N 45°19' E 036°32'1 5.4
2018-Jul-07 07:26N 45°19' E 036°33'2 5.4
2018-Jul-07 07:00N 45°20' E 036°36'3 5.2
2018-Jul-07 06:30N 45°22' E 036°39'3 5.3
2018-Jul-07 05:59N 45°24' E 036°40'3 5.2
2018-Jul-07 05:30N 45°27' E 036°39'  

Dump ship's entire track history